createdAt,value
2022-12-19T00:00:44.607Z,97073.78
2022-12-19T00:03:12.811Z,97067.59
2022-12-19T00:05:41.988Z,97066.22
2022-12-19T00:08:18.161Z,97064.22
2022-12-19T00:10:56.618Z,97061.84
2022-12-19T00:13:25.462Z,97055.06
2022-12-19T00:15:53.656Z,97069.00
2022-12-19T00:18:22.466Z,97060.78
2022-12-19T00:20:58.484Z,97055.97
2022-12-19T00:23:27.345Z,97057.97
2022-12-19T00:25:56.810Z,97062.16
2022-12-19T00:28:24.957Z,97055.38
2022-12-19T00:30:55.188Z,97054.38
2022-12-19T00:33:24.472Z,97059.38
2022-12-19T00:35:52.487Z,97058.41
2022-12-19T00:38:20.704Z,97057.81
2022-12-19T00:40:48.823Z,97047.63
2022-12-19T00:43:18.278Z,97048.63
2022-12-19T00:45:46.463Z,97043.03
2022-12-19T00:48:14.729Z,97039.09
2022-12-19T00:50:45.645Z,97036.72
2022-12-19T00:53:13.848Z,97033.91
2022-12-19T00:55:41.905Z,97025.34
2022-12-19T00:58:09.907Z,97033.13
2022-12-19T01:00:39.581Z,97033.91
2022-12-19T01:03:10.325Z,97032.28
2022-12-19T01:05:42.031Z,97032.25
2022-12-19T01:08:10.309Z,97018.47
2022-12-19T01:10:38.530Z,97023.88
2022-12-19T01:13:05.640Z,97024.88
2022-12-19T01:15:33.697Z,97031.06
2022-12-19T01:18:03.607Z,97039.81
2022-12-19T01:20:31.785Z,97037.38
2022-12-19T01:23:00.820Z,97030.16
2022-12-19T01:25:29.463Z,97035.78
2022-12-19T01:27:58.312Z,97049.53
2022-12-19T01:30:27.624Z,97050.88
2022-12-19T01:32:58.411Z,97036.00
2022-12-19T01:35:28.069Z,97042.16
2022-12-19T01:38:07.638Z,97046.19
2022-12-19T01:40:38.956Z,97039.31
2022-12-19T01:43:07.510Z,97046.94
2022-12-19T01:45:42.130Z,97042.75
2022-12-19T01:48:21.669Z,97034.91
2022-12-19T01:51:02.098Z,97031.66
2022-12-19T01:53:37.317Z,97024.44
2022-12-19T01:56:18.773Z,97026.09
2022-12-19T01:58:47.790Z,97028.94
2022-12-19T02:01:18.387Z,97028.78
2022-12-19T02:03:47.201Z,97023.38
2022-12-19T02:06:16.728Z,97014.25
2022-12-19T02:08:47.565Z,97011.88
2022-12-19T02:11:15.744Z,97024.03
2022-12-19T02:13:45.865Z,97031.75
2022-12-19T02:16:25.392Z,97039.72
2022-12-19T02:19:05.625Z,97055.63
2022-12-19T02:21:54.611Z,97046.78
2022-12-19T02:24:49.755Z,97044.34
2022-12-19T02:27:44.797Z,97028.94
2022-12-19T02:30:15.588Z,97039.31
2022-12-19T02:32:52.152Z,97045.16
2022-12-19T02:35:27.599Z,97035.81
2022-12-19T02:38:08.430Z,97040.84
2022-12-19T02:40:43.644Z,97030.13
2022-12-19T02:43:40.053Z,97034.16
2022-12-19T02:46:08.894Z,97032.75
2022-12-19T02:48:39.261Z,97033.34
2022-12-19T02:51:07.616Z,97024.19
2022-12-19T02:53:38.400Z,97024.97
2022-12-19T02:56:26.134Z,97014.78
2022-12-19T02:59:10.314Z,97013.19
2022-12-19T03:01:46.932Z,97004.00
2022-12-19T03:04:27.760Z,97022.59
2022-12-19T03:07:01.854Z,97019.41
2022-12-19T03:09:39.293Z,97024.13
2022-12-19T03:12:17.366Z,97018.81
2022-12-19T03:14:47.306Z,97016.81
2022-12-19T03:17:16.095Z,97022.44
2022-12-19T03:19:46.038Z,97025.81
2022-12-19T03:22:14.233Z,97016.78
2022-12-19T03:24:42.424Z,97016.72
2022-12-19T03:27:13.976Z,97022.75
2022-12-19T03:29:46.786Z,97025.25
2022-12-19T03:32:16.597Z,97023.13
2022-12-19T03:34:49.256Z,97022.97
2022-12-19T03:37:21.189Z,97037.38
2022-12-19T03:39:53.454Z,97021.00
2022-12-19T03:42:42.207Z,97010.59
2022-12-19T03:45:12.728Z,97021.00
2022-12-19T03:47:43.460Z,97020.19
2022-12-19T03:50:13.232Z,97019.81
2022-12-19T03:52:49.551Z,97027.81
2022-12-19T03:55:20.501Z,97032.00
2022-12-19T03:57:54.770Z,97029.78
2022-12-19T04:00:25.402Z,97026.19
2022-12-19T04:02:57.083Z,97014.97
2022-12-19T04:05:28.804Z,97011.72
2022-12-19T04:07:59.814Z,97021.91
2022-12-19T04:10:29.614Z,97023.59
2022-12-19T04:13:01.517Z,97026.31
2022-12-19T04:15:35.977Z,97023.09
2022-12-19T04:18:08.368Z,97013.91
2022-12-19T04:20:39.757Z,97018.69
2022-12-19T04:23:12.879Z,97006.88
2022-12-19T04:25:44.032Z,97008.63
2022-12-19T04:28:16.388Z,97011.06
2022-12-19T04:30:46.214Z,97016.31
2022-12-19T04:33:14.267Z,97009.34
2022-12-19T04:35:43.860Z,97011.00
2022-12-19T04:38:12.101Z,97017.19
2022-12-19T04:40:41.718Z,97011.56
2022-12-19T04:43:10.611Z,97015.34
2022-12-19T04:45:38.878Z,97012.69
2022-12-19T04:48:08.127Z,97015.88
2022-12-19T04:50:37.471Z,97006.22
2022-12-19T04:53:07.636Z,97007.94
2022-12-19T04:55:36.323Z,96996.41
2022-12-19T04:58:06.299Z,97003.19
2022-12-19T05:00:34.853Z,97012.50
2022-12-19T05:03:03.044Z,97003.31
2022-12-19T05:05:31.149Z,96996.53
2022-12-19T05:07:59.361Z,97006.72
2022-12-19T05:10:28.881Z,97008.50
2022-12-19T05:12:56.844Z,97005.13
2022-12-19T05:15:24.910Z,97001.72
2022-12-19T05:17:53.117Z,97002.09
2022-12-19T05:20:21.280Z,97007.22
2022-12-19T05:22:49.248Z,96996.84
2022-12-19T05:25:17.354Z,97006.00
2022-12-19T05:27:46.793Z,97003.41
2022-12-19T05:30:15.248Z,97006.22
2022-12-19T05:32:43.230Z,97012.28
2022-12-19T05:35:11.224Z,97017.31
2022-12-19T05:37:39.274Z,97016.56
2022-12-19T05:40:08.723Z,97014.06
2022-12-19T05:42:36.657Z,97023.56
2022-12-19T05:45:06.777Z,97016.84
2022-12-19T05:47:34.869Z,97027.53
2022-12-19T05:50:03.269Z,97028.94
2022-12-19T05:52:31.351Z,97021.00
2022-12-19T05:54:59.336Z,97032.19
2022-12-19T05:57:27.390Z,97034.97
2022-12-19T05:59:55.345Z,97025.81
2022-12-19T06:02:24.963Z,97016.84
2022-12-19T06:04:53.490Z,97005.47
2022-12-19T06:07:21.578Z,97003.91
2022-12-19T06:09:49.654Z,97003.56
2022-12-19T06:12:17.815Z,97004.81
2022-12-19T06:14:45.843Z,97008.81
2022-12-19T06:17:13.854Z,97008.81
2022-12-19T06:19:43.369Z,97004.00
2022-12-19T06:22:11.373Z,96989.63
2022-12-19T06:24:39.598Z,96998.22
2022-12-19T06:27:07.768Z,96999.03
2022-12-19T06:29:35.971Z,96990.84
2022-12-19T06:32:04.239Z,96986.47
2022-12-19T06:35:02.606Z,96985.31
2022-12-19T06:37:21.715Z,96991.31
2022-12-19T06:39:51.862Z,96986.97
2022-12-19T06:42:25.013Z,96984.59
2022-12-19T06:44:54.364Z,96985.81
2022-12-19T06:47:24.848Z,96981.00
2022-12-19T06:49:52.886Z,96971.41
2022-12-19T06:52:22.453Z,96982.22
2022-12-19T06:54:50.580Z,96977.44
2022-12-19T06:57:18.690Z,96985.22
2022-12-19T06:59:46.712Z,96986.22
2022-12-19T07:02:26.561Z,96978.84
2022-12-19T07:05:01.841Z,96979.44
2022-12-19T07:07:31.898Z,96981.44
2022-12-19T07:10:00.222Z,96982.22
2022-12-19T07:12:28.264Z,96995.41
2022-12-19T07:14:56.361Z,96993.81
2022-12-19T07:17:26.878Z,96988.63
2022-12-19T07:19:56.871Z,96986.63
2022-12-19T07:22:25.986Z,96992.22
2022-12-19T07:24:56.198Z,96986.81
2022-12-19T07:27:25.105Z,96988.22
2022-12-19T07:29:55.750Z,96984.63
2022-12-19T07:32:24.036Z,96990.03
2022-12-19T07:34:54.849Z,96985.44
2022-12-19T07:37:22.934Z,96981.47
2022-12-19T07:39:52.620Z,96980.28
2022-12-19T07:42:22.155Z,96997.44
2022-12-19T07:44:50.256Z,96992.25
2022-12-19T07:47:18.481Z,96996.44
2022-12-19T07:49:46.547Z,96997.03
2022-12-19T07:52:14.596Z,97005.41
2022-12-19T07:54:42.737Z,97008.19
2022-12-19T07:57:10.753Z,97009.34
2022-12-19T07:59:40.162Z,97006.94
2022-12-19T08:02:08.500Z,97000.88
2022-12-19T08:04:36.619Z,96989.69
2022-12-19T08:07:04.971Z,96991.66
2022-12-19T08:09:33.219Z,96997.78
2022-12-19T08:12:01.311Z,96999.34
2022-12-19T08:14:29.535Z,97000.72
2022-12-19T08:19:47.118Z,97001.03
2022-12-19T08:22:15.220Z,96995.81
2022-12-19T08:24:43.273Z,96997.59
2022-12-19T08:27:11.872Z,96996.19
2022-12-19T08:29:39.925Z,96989.56
2022-12-19T08:32:09.496Z,97004.88
2022-12-19T08:34:37.612Z,97012.63
2022-12-19T08:37:05.607Z,97012.31
2022-12-19T08:39:33.893Z,97009.78
2022-12-19T08:42:02.910Z,97006.06
2022-12-19T08:44:31.008Z,97000.31
2022-12-19T08:46:58.993Z,97001.78
2022-12-19T08:49:28.656Z,96995.84
2022-12-19T08:51:56.755Z,96992.94
2022-12-19T08:54:24.850Z,96995.13
2022-12-19T08:56:52.881Z,97002.28
2022-12-19T08:59:25.972Z,96999.03
2022-12-19T09:02:00.618Z,96989.91
2022-12-19T09:05:10.791Z,97001.41
2022-12-19T09:07:18.905Z,97005.22
2022-12-19T09:09:46.927Z,96986.03
2022-12-19T09:12:16.180Z,96987.75
2022-12-19T09:14:45.385Z,96988.72
2022-12-19T09:17:13.663Z,96988.75
2022-12-19T09:19:47.387Z,96994.53
2022-12-19T09:22:16.432Z,96994.03
2022-12-19T09:24:44.636Z,96995.97
2022-12-19T09:27:12.641Z,96990.97
2022-12-19T09:29:42.577Z,96990.63
2022-12-19T09:32:10.653Z,96982.34
2022-12-19T09:34:39.191Z,96979.75
2022-12-19T09:37:15.968Z,96981.97
2022-12-19T09:39:46.542Z,96978.53
2022-12-19T09:42:56.387Z,96980.69
2022-12-19T09:45:40.457Z,96986.88
2022-12-19T09:48:17.789Z,96976.22
2022-12-19T09:51:10.667Z,96975.78
2022-12-19T09:53:54.889Z,96979.38
2022-12-19T09:56:24.858Z,96973.25
2022-12-19T09:58:57.239Z,96978.38
2022-12-19T10:01:30.766Z,96979.94
2022-12-19T10:04:04.624Z,96972.47
2022-12-19T10:07:16.033Z,96969.78
2022-12-19T10:12:10.703Z,96972.94
2022-12-19T10:12:44.876Z,96979.94
2022-12-19T10:15:27.470Z,96967.81
2022-12-19T10:18:15.526Z,96971.53
2022-12-19T10:20:51.450Z,96971.03
2022-12-19T10:23:57.477Z,96968.72
2022-12-19T10:26:31.432Z,96954.75
2022-12-19T10:29:17.679Z,96959.66
2022-12-19T10:31:55.104Z,96948.00
2022-12-19T10:34:25.355Z,96942.56
2022-12-19T10:37:26.946Z,96939.19
2022-12-19T10:39:55.778Z,96943.31
2022-12-19T10:42:34.747Z,96947.09
2022-12-19T10:45:06.445Z,96939.25
2022-12-19T10:47:34.708Z,96938.00
2022-12-19T10:50:09.232Z,96938.81
2022-12-19T10:52:55.077Z,96940.16
2022-12-19T10:55:30.405Z,96931.88
2022-12-19T10:58:02.631Z,96926.56
2022-12-19T11:00:33.082Z,96928.03
2022-12-19T11:03:19.226Z,96921.75
2022-12-19T11:05:52.616Z,96926.25
2022-12-19T11:08:28.354Z,96924.09
2022-12-19T11:12:51.140Z,96917.16
2022-12-19T11:18:44.271Z,96906.91
2022-12-19T11:21:49.864Z,96913.13
2022-12-19T11:29:29.802Z,96915.22
2022-12-19T11:29:33.803Z,96900.53
2022-12-19T11:29:42.226Z,96893.53
2022-12-19T11:30:37.984Z,96897.97
2022-12-19T11:33:55.584Z,96896.28
2022-12-19T11:36:32.621Z,96888.75
2022-12-19T11:39:01.065Z,96879.47
2022-12-19T11:41:40.441Z,96882.19
2022-12-19T11:44:19.768Z,96881.41
2022-12-19T11:46:58.200Z,96888.34
2022-12-19T11:49:31.547Z,96881.34
2022-12-19T11:52:54.047Z,96873.31
2022-12-19T11:55:17.940Z,96867.53
2022-12-19T11:57:47.144Z,96870.34
2022-12-19T12:00:20.518Z,96862.84
2022-12-19T12:03:19.178Z,96864.75
2022-12-19T12:05:48.686Z,96855.50
2022-12-19T12:12:10.473Z,96847.84
2022-12-19T12:14:49.792Z,96845.59
2022-12-19T12:20:23.593Z,96845.41
2022-12-19T12:31:00.904Z,96843.69
2022-12-19T12:31:30.604Z,96837.19
2022-12-19T12:31:46.584Z,96847.88
2022-12-19T12:31:56.046Z,96842.28
2022-12-19T12:32:05.070Z,96842.47
2022-12-19T12:35:43.566Z,96842.41
2022-12-19T12:38:43.279Z,96856.84
2022-12-19T12:41:45.250Z,96847.94
2022-12-19T12:44:14.486Z,96848.63
2022-12-19T12:46:48.047Z,96846.91
2022-12-19T12:49:34.521Z,96837.13
2022-12-19T12:52:04.468Z,96839.19
2022-12-19T12:54:39.129Z,96837.63
2022-12-19T12:57:07.416Z,96828.97
2022-12-19T12:59:35.481Z,96824.47
2022-12-19T13:02:18.222Z,96827.94
2022-12-19T13:04:56.920Z,96831.94
2022-12-19T13:07:42.558Z,96830.97
2022-12-19T13:10:25.806Z,96833.38
2022-12-19T13:13:02.529Z,96816.88
2022-12-19T13:15:39.323Z,96821.03
2022-12-19T13:18:33.659Z,96815.78
2022-12-19T13:21:04.360Z,96810.84
2022-12-19T13:23:47.622Z,96809.56
2022-12-19T13:26:46.926Z,96815.91
2022-12-19T13:29:54.491Z,96819.06
2022-12-19T13:32:24.141Z,96824.78
2022-12-19T13:34:57.540Z,96822.91
2022-12-19T13:39:56.781Z,96822.06
2022-12-19T13:40:35.387Z,96809.47
2022-12-19T13:43:34.130Z,96808.38
2022-12-19T13:46:04.234Z,96815.09
2022-12-19T13:48:36.541Z,96806.88
2022-12-19T13:51:07.507Z,96811.00
2022-12-19T13:53:36.968Z,96807.84
2022-12-19T13:56:07.109Z,96805.47
2022-12-19T13:58:46.402Z,96809.59
2022-12-19T14:01:21.540Z,96807.53
2022-12-19T14:03:52.854Z,96808.38
2022-12-19T14:06:23.640Z,96805.03
2022-12-19T14:09:41.469Z,96811.91
2022-12-19T14:13:45.960Z,96802.47
2022-12-19T14:15:12.958Z,96806.19
2022-12-19T14:17:42.408Z,96800.16
2022-12-19T14:22:06.687Z,96810.88
2022-12-19T14:23:07.949Z,96799.38
2022-12-19T14:28:17.528Z,96800.41
2022-12-19T14:28:39.343Z,96796.69
2022-12-19T14:31:14.271Z,96798.78
2022-12-19T14:34:11.115Z,96794.81
2022-12-19T14:36:35.811Z,96812.34
2022-12-19T14:39:26.900Z,96813.38
2022-12-19T14:42:11.802Z,96812.28
2022-12-19T14:52:08.673Z,96821.97
2022-12-19T14:54:18.173Z,96825.13
2022-12-19T14:54:20.953Z,96839.81
2022-12-19T14:54:41.913Z,96833.00
2022-12-19T14:56:26.780Z,96840.84
2022-12-19T14:59:00.663Z,96845.28
2022-12-19T15:01:30.822Z,96844.19
2022-12-19T15:04:50.456Z,96838.88
2022-12-19T15:07:08.388Z,96847.72
2022-12-19T15:11:08.740Z,96852.31
2022-12-19T15:14:50.871Z,96858.53
2022-12-19T15:15:56.576Z,96859.44
2022-12-19T15:18:28.077Z,96874.28
2022-12-19T15:20:59.328Z,96878.88
2022-12-19T15:23:28.277Z,96869.81
2022-12-19T15:26:06.001Z,96877.25
2022-12-19T15:28:40.124Z,96874.88
2022-12-19T15:31:19.664Z,96888.03
2022-12-19T15:34:23.185Z,96875.66
2022-12-19T15:36:37.432Z,96867.25
2022-12-19T15:39:05.909Z,96880.25
2022-12-19T15:41:34.036Z,96870.44
2022-12-19T15:44:09.906Z,96864.34
2022-12-19T15:46:44.590Z,96866.47
2022-12-19T15:49:17.698Z,96871.13
2022-12-19T15:51:47.592Z,96876.94
2022-12-19T15:57:04.650Z,96877.06
2022-12-19T15:59:37.470Z,96879.91
2022-12-19T16:02:16.861Z,96876.19
2022-12-19T16:04:46.732Z,96868.81
2022-12-19T16:07:18.731Z,96868.50
2022-12-19T16:09:47.380Z,96861.81
2022-12-19T16:12:18.045Z,96873.19
2022-12-19T16:14:48.639Z,96867.13
2022-12-19T16:17:21.977Z,96863.28
2022-12-19T16:19:50.494Z,96876.69
2022-12-19T16:22:22.553Z,96875.56
2022-12-19T16:24:51.456Z,96872.84
2022-12-19T16:27:24.998Z,96873.81
2022-12-19T16:29:54.046Z,96863.63
2022-12-19T16:32:24.158Z,96864.31
2022-12-19T16:34:52.879Z,96865.31
2022-12-19T16:37:27.207Z,96859.28
2022-12-19T16:39:56.812Z,96849.88
2022-12-19T16:42:25.016Z,96842.97
2022-12-19T16:44:53.662Z,96852.13
2022-12-19T16:47:21.796Z,96855.19
2022-12-19T16:49:50.197Z,96860.41
2022-12-19T16:52:18.326Z,96861.53
2022-12-19T16:54:47.771Z,96861.09
2022-12-19T16:57:21.002Z,96857.13
2022-12-19T16:59:49.927Z,96862.91
2022-12-19T17:02:43.000Z,96865.19
2022-12-19T17:05:20.196Z,96861.34
2022-12-19T17:07:49.454Z,96861.22
2022-12-19T17:10:25.941Z,96861.91
2022-12-19T17:12:55.816Z,96866.19
2022-12-19T17:15:28.567Z,96857.69
2022-12-19T17:17:59.346Z,96866.72
2022-12-19T17:20:33.313Z,96863.31
2022-12-19T17:23:01.515Z,96857.84
2022-12-19T17:25:31.974Z,96859.16
2022-12-19T17:27:59.965Z,96858.25
2022-12-19T17:30:28.182Z,96859.13
2022-12-19T17:32:57.201Z,96860.22
2022-12-19T17:35:28.437Z,96860.53
2022-12-19T17:37:58.057Z,96864.00
2022-12-19T17:40:28.101Z,96867.06
2022-12-19T17:42:57.858Z,96854.94
2022-12-19T17:45:26.854Z,96856.16
2022-12-19T17:48:02.245Z,96850.81
2022-12-19T17:50:33.198Z,96845.56
2022-12-19T17:53:01.300Z,96854.72
2022-12-19T17:55:30.988Z,96861.31
2022-12-19T17:58:00.588Z,96862.91
2022-12-19T18:00:31.081Z,96850.69
2022-12-19T18:03:02.954Z,96847.72
2022-12-19T18:05:35.916Z,96855.97
2022-12-19T18:08:04.937Z,96859.56
2022-12-19T18:10:33.512Z,96852.22
2022-12-19T18:13:02.967Z,96854.00
2022-12-19T18:15:31.165Z,96856.41
2022-12-19T18:18:00.149Z,96852.78
2022-12-19T18:20:32.194Z,96858.19
2022-12-19T18:23:01.496Z,96856.31
2022-12-19T18:25:32.078Z,96856.31
2022-12-19T18:28:00.278Z,96858.72
2022-12-19T18:30:29.772Z,96854.09
2022-12-19T18:32:59.475Z,96846.72
2022-12-19T18:35:37.469Z,96849.53
2022-12-19T18:38:08.695Z,96845.47
2022-12-19T18:40:37.062Z,96849.59
2022-12-19T18:43:05.788Z,96864.34
2022-12-19T18:45:37.343Z,96865.22
2022-12-19T18:48:09.128Z,96857.56
2022-12-19T18:50:37.244Z,96859.94
2022-12-19T18:53:12.003Z,96855.69
2022-12-19T18:55:40.105Z,96851.72
2022-12-19T18:58:08.295Z,96868.53
2022-12-19T19:00:39.961Z,96867.06
2022-12-19T19:03:14.817Z,96864.69
2022-12-19T19:05:43.588Z,96863.97
2022-12-19T19:08:18.587Z,96866.56
2022-12-19T19:10:48.887Z,96872.34
2022-12-19T19:13:18.637Z,96855.72
2022-12-19T19:15:51.520Z,96872.19
2022-12-19T19:18:23.638Z,96864.28
2022-12-19T19:21:00.492Z,96870.97
2022-12-19T19:23:34.834Z,96870.41
2022-12-19T19:26:03.097Z,96867.56
2022-12-19T19:28:31.242Z,96868.06
2022-12-19T19:31:02.286Z,96861.00
2022-12-19T19:33:33.850Z,96873.94
2022-12-19T19:36:11.959Z,96876.81
2022-12-19T19:38:44.142Z,96882.72
2022-12-19T19:41:12.748Z,96885.69
2022-12-19T19:43:41.401Z,96879.56
2022-12-19T19:46:11.131Z,96879.06
2022-12-19T19:48:41.433Z,96881.31
2022-12-19T19:51:25.535Z,96864.09
2022-12-19T19:53:53.771Z,96860.22
2022-12-19T19:56:21.978Z,96870.91
2022-12-19T19:58:50.196Z,96879.50
2022-12-19T20:01:18.567Z,96865.22
2022-12-19T20:03:47.108Z,96856.34
2022-12-19T20:06:15.427Z,96868.56
2022-12-19T20:08:44.995Z,96850.38
2022-12-19T20:11:13.904Z,96879.53
2022-12-19T20:13:42.085Z,96848.75
2022-12-19T20:16:12.485Z,96863.13
2022-12-19T20:18:41.744Z,96864.47
2022-12-19T20:21:13.191Z,96861.72
2022-12-19T20:23:42.832Z,96857.19
2022-12-19T20:26:13.380Z,96849.53
2022-12-19T20:28:48.471Z,96834.72
2022-12-19T20:31:17.423Z,96855.63
2022-12-19T20:33:46.438Z,96840.47
2022-12-19T20:36:15.521Z,96844.78
2022-12-19T20:38:44.045Z,96847.16
2022-12-19T20:41:13.696Z,96843.91
2022-12-19T20:43:42.323Z,96861.38
2022-12-19T20:46:13.000Z,96841.59
2022-12-19T20:48:42.081Z,96842.38
2022-12-19T20:51:11.058Z,96839.50
2022-12-19T20:53:41.664Z,96836.09
2022-12-19T20:56:12.511Z,96836.31
2022-12-19T20:58:42.834Z,96840.13
2022-12-19T21:01:13.942Z,96859.38
2022-12-19T21:03:44.053Z,96841.16
2022-12-19T21:06:14.324Z,96847.56
2022-12-19T21:08:43.347Z,96842.00
2022-12-19T21:11:12.677Z,96853.16
2022-12-19T21:13:43.822Z,96850.97
2022-12-19T21:16:14.642Z,96832.28
2022-12-19T21:18:45.300Z,96842.09
2022-12-19T21:21:16.397Z,96840.19
2022-12-19T21:23:45.618Z,96830.06
2022-12-19T21:26:14.515Z,96848.72
2022-12-19T21:28:44.804Z,96827.00
2022-12-19T21:31:17.568Z,96840.09
2022-12-19T21:33:47.382Z,96854.41
2022-12-19T21:36:19.237Z,96822.13
2022-12-19T21:38:48.455Z,96838.75
2022-12-19T21:41:19.489Z,96842.72
2022-12-19T21:43:52.555Z,96828.34
2022-12-19T21:46:22.852Z,96820.72
2022-12-19T21:48:52.503Z,96844.94
2022-12-19T21:51:22.275Z,96847.69
2022-12-19T21:53:54.596Z,96825.75
2022-12-19T21:56:26.034Z,96838.91
2022-12-19T21:58:57.536Z,96830.09
2022-12-19T22:01:26.598Z,96846.31
2022-12-19T22:03:59.972Z,96860.69
2022-12-19T22:06:30.973Z,96834.63
2022-12-19T22:08:59.750Z,96834.47
2022-12-19T22:11:29.779Z,96832.09
2022-12-19T22:14:00.568Z,96827.94
2022-12-19T22:16:29.376Z,96847.19
2022-12-19T22:18:57.726Z,96828.44
2022-12-19T22:21:26.520Z,96830.88
2022-12-19T22:23:58.921Z,96827.25
2022-12-19T22:26:28.973Z,96838.06
2022-12-19T22:28:59.794Z,96831.56
2022-12-19T22:31:30.127Z,96813.06
2022-12-19T22:34:00.269Z,96800.75
2022-12-19T22:36:29.865Z,96797.59
2022-12-19T22:38:59.572Z,96811.53
2022-12-19T22:41:28.347Z,96801.34
2022-12-19T22:43:58.702Z,96789.84
2022-12-19T22:46:30.834Z,96813.91
2022-12-19T22:49:01.275Z,96801.59
2022-12-19T22:51:31.458Z,96814.94
2022-12-19T22:54:01.880Z,96801.91
2022-12-19T22:56:32.586Z,96814.53
2022-12-19T22:59:04.773Z,96793.03
2022-12-19T23:01:35.156Z,96799.25
2022-12-19T23:04:04.170Z,96801.59
2022-12-19T23:06:34.799Z,96790.47
2022-12-19T23:09:03.777Z,96784.91
2022-12-19T23:11:34.221Z,96799.25
2022-12-19T23:14:05.511Z,96770.84
2022-12-19T23:16:33.974Z,96771.84
2022-12-19T23:19:02.287Z,96777.03
2022-12-19T23:21:30.471Z,96786.50
2022-12-19T23:23:58.690Z,96783.41
2022-12-19T23:26:29.316Z,96784.22
2022-12-19T23:29:00.091Z,96779.13
2022-12-19T23:31:30.996Z,96791.09
2022-12-19T23:33:59.890Z,96788.75
2022-12-19T23:37:08.418Z,96784.22
2022-12-19T23:39:17.136Z,96780.88
2022-12-19T23:41:45.566Z,96768.56
2022-12-19T23:44:14.197Z,96753.00
2022-12-19T23:46:43.790Z,96778.47
2022-12-19T23:49:12.161Z,96782.88
2022-12-19T23:51:40.508Z,96773.31
2022-12-19T23:54:09.220Z,96787.25
2022-12-19T23:56:37.607Z,96778.84
2022-12-19T23:59:05.863Z,96783.84
